createdAt,value
2023-05-11T00:01:17.636Z,21.20
2023-05-11T00:03:45.241Z,20.13
2023-05-11T00:06:12.892Z,20.38
2023-05-11T00:08:40.545Z,20.50
2023-05-11T00:11:09.302Z,20.05
2023-05-11T00:13:37.002Z,19.85
2023-05-11T00:16:05.044Z,21.63
2023-05-11T00:18:32.737Z,20.77
2023-05-11T00:21:00.284Z,20.02
2023-05-11T00:23:27.865Z,21.55
2023-05-11T00:25:55.467Z,21.00
2023-05-11T00:28:23.249Z,20.88
2023-05-11T00:30:55.863Z,21.08
2023-05-11T00:33:24.147Z,20.67
2023-05-11T00:35:52.250Z,21.52
2023-05-11T00:38:20.268Z,20.10
2023-05-11T00:40:49.995Z,20.70
2023-05-11T00:43:17.577Z,21.52
2023-05-11T00:45:47.993Z,20.02
2023-05-11T00:48:16.376Z,19.17
2023-05-11T00:50:44.710Z,20.25
2023-05-11T00:53:13.191Z,20.90
2023-05-11T00:55:40.931Z,21.58
2023-05-11T00:58:08.725Z,20.33
2023-05-11T01:00:36.940Z,20.10
2023-05-11T01:03:05.377Z,19.65
2023-05-11T01:05:51.669Z,20.10
2023-05-11T01:08:27.945Z,19.48
2023-05-11T01:11:16.619Z,18.98
2023-05-11T01:13:54.619Z,18.73
2023-05-11T01:16:26.479Z,19.75
2023-05-11T01:19:12.629Z,20.77
2023-05-11T01:21:41.951Z,20.13
2023-05-11T01:25:02.265Z,20.02
2023-05-11T01:28:09.676Z,19.88
2023-05-11T01:30:57.771Z,21.23
2023-05-11T01:33:32.750Z,20.90
2023-05-11T01:36:07.516Z,20.27
2023-05-11T01:38:41.912Z,20.63
2023-05-11T01:41:16.381Z,19.83
2023-05-11T01:43:54.321Z,20.75
2023-05-11T01:46:26.413Z,20.55
2023-05-11T01:48:59.416Z,21.35
2023-05-11T01:51:33.556Z,21.23
2023-05-11T01:54:03.959Z,23.52
2023-05-11T01:59:04.124Z,21.67
2023-05-11T02:01:38.175Z,23.02
2023-05-11T02:04:09.395Z,24.02
2023-05-11T02:06:39.311Z,22.85
2023-05-11T02:09:10.543Z,25.05
2023-05-11T02:11:42.774Z,24.40
2023-05-11T02:14:12.140Z,24.45
2023-05-11T02:16:41.404Z,24.42
2023-05-11T02:19:09.560Z,26.17
2023-05-11T02:21:40.007Z,26.60
2023-05-11T02:24:09.125Z,24.70
2023-05-11T02:26:36.985Z,25.55
2023-05-11T02:29:04.721Z,25.23
2023-05-11T02:31:39.409Z,26.38
2023-05-11T02:34:20.869Z,25.33
2023-05-11T02:36:53.835Z,24.83
2023-05-11T02:39:30.085Z,26.52
2023-05-11T02:42:11.348Z,25.58
2023-05-11T02:44:45.368Z,24.70
2023-05-11T02:47:17.761Z,25.48
2023-05-11T02:49:53.769Z,25.02
2023-05-11T02:52:27.489Z,25.23
2023-05-11T02:54:57.769Z,25.58
2023-05-11T02:57:26.214Z,25.10
2023-05-11T02:59:55.659Z,25.58
2023-05-11T03:02:23.663Z,26.52
2023-05-11T03:04:51.662Z,25.90
2023-05-11T03:07:19.408Z,25.75
2023-05-11T03:09:47.135Z,25.90
2023-05-11T03:12:15.708Z,27.23
2023-05-11T03:14:44.626Z,27.20
2023-05-11T03:17:14.908Z,26.60
2023-05-11T03:19:43.438Z,26.10
2023-05-11T03:22:13.788Z,25.70
2023-05-11T03:24:42.947Z,27.08
2023-05-11T03:27:12.347Z,27.75
2023-05-11T03:29:44.529Z,26.15
2023-05-11T03:32:14.150Z,27.23
2023-05-11T03:34:42.956Z,28.13
2023-05-11T03:37:15.036Z,27.73
2023-05-11T03:39:46.715Z,28.08
2023-05-11T03:42:16.084Z,26.52
2023-05-11T03:44:48.882Z,28.73
2023-05-11T03:47:19.221Z,27.67
2023-05-11T03:49:48.795Z,27.98
2023-05-11T03:52:18.222Z,27.55
2023-05-11T03:54:46.189Z,27.48
2023-05-11T03:57:17.117Z,27.73
2023-05-11T03:59:46.296Z,26.67
2023-05-11T04:02:13.963Z,27.67
2023-05-11T04:04:41.810Z,27.60
2023-05-11T04:07:09.432Z,26.25
2023-05-11T04:09:37.005Z,27.92
2023-05-11T04:12:04.868Z,28.25
2023-05-11T04:14:32.557Z,26.67
2023-05-11T04:17:00.492Z,27.52
2023-05-11T04:19:28.466Z,28.17
2023-05-11T04:21:55.980Z,27.20
2023-05-11T04:24:23.572Z,26.95
2023-05-11T04:26:57.255Z,25.60
2023-05-11T04:29:25.570Z,26.80
2023-05-11T04:31:53.658Z,25.58
2023-05-11T04:34:21.785Z,26.20
2023-05-11T04:36:51.280Z,25.63
2023-05-11T04:39:19.672Z,25.50
2023-05-11T04:41:47.689Z,25.25
2023-05-11T04:44:15.644Z,25.85
2023-05-11T04:46:43.223Z,25.55
2023-05-11T04:49:10.780Z,26.23
2023-05-11T04:51:40.554Z,26.95
2023-05-11T04:54:10.321Z,24.60
2023-05-11T04:56:40.651Z,27.35
2023-05-11T04:59:08.600Z,26.92
2023-05-11T05:01:36.465Z,26.42
2023-05-11T05:04:04.177Z,26.27
2023-05-11T05:06:32.321Z,25.05
2023-05-11T05:08:59.928Z,27.48
2023-05-11T05:11:27.539Z,28.23
2023-05-11T05:13:55.323Z,25.65
2023-05-11T05:16:23.270Z,26.25
2023-05-11T05:18:51.030Z,27.05
2023-05-11T05:21:18.657Z,26.85
2023-05-11T05:23:46.186Z,26.52
2023-05-11T05:26:13.763Z,25.90
2023-05-11T05:28:41.942Z,26.17
2023-05-11T05:31:10.400Z,26.08
2023-05-11T05:33:37.971Z,26.08
2023-05-11T05:36:07.141Z,26.67
2023-05-11T05:38:34.796Z,24.58
2023-05-11T05:41:02.623Z,23.20
2023-05-11T05:43:33.268Z,23.37
2023-05-11T05:46:01.059Z,22.33
2023-05-11T05:48:30.000Z,23.05
2023-05-11T05:50:57.656Z,22.95
2023-05-11T05:53:25.347Z,25.45
2023-05-11T05:55:52.841Z,22.92
2023-05-11T05:58:20.459Z,24.27
2023-05-11T06:00:49.143Z,24.30
2023-05-11T06:03:16.883Z,24.17
2023-05-11T06:05:44.470Z,24.73
2023-05-11T06:08:12.684Z,25.35
2023-05-11T06:10:40.632Z,26.48
2023-05-11T06:13:10.082Z,26.08
2023-05-11T06:15:41.791Z,25.60
2023-05-11T06:18:19.009Z,27.48
2023-05-11T06:20:46.920Z,28.80
2023-05-11T06:23:16.070Z,27.35
2023-05-11T06:25:45.222Z,26.38
2023-05-11T06:28:13.665Z,26.70
2023-05-11T06:30:41.767Z,26.70
2023-05-11T06:33:10.541Z,25.95
2023-05-11T06:35:39.798Z,24.95
2023-05-11T06:38:09.893Z,27.08
2023-05-11T06:40:38.039Z,24.90
2023-05-11T06:43:06.546Z,26.02
2023-05-11T06:45:45.878Z,26.52
2023-05-11T06:48:13.856Z,28.38
2023-05-11T06:50:41.542Z,27.98
2023-05-11T06:53:14.170Z,37.70
2023-05-11T06:55:41.860Z,26.75
2023-05-11T06:58:09.577Z,24.77
2023-05-11T07:00:37.153Z,23.52
2023-05-11T07:03:05.767Z,23.77
2023-05-11T07:05:33.501Z,23.92
2023-05-11T07:08:01.131Z,24.77
2023-05-11T07:10:28.741Z,26.65
2023-05-11T07:12:56.353Z,25.98
2023-05-11T07:15:24.406Z,27.92
2023-05-11T07:17:52.563Z,31.23
2023-05-11T07:20:20.605Z,30.27
2023-05-11T07:22:48.542Z,31.95
2023-05-11T07:25:16.137Z,31.00
2023-05-11T07:27:44.494Z,29.85
2023-05-11T07:30:12.371Z,29.65
2023-05-11T07:32:40.056Z,30.45
2023-05-11T07:35:08.187Z,29.35
2023-05-11T07:37:35.761Z,29.83
2023-05-11T07:40:04.640Z,28.35
2023-05-11T07:42:32.281Z,29.10
2023-05-11T07:44:59.850Z,28.83
2023-05-11T07:47:27.432Z,34.45
2023-05-11T07:49:54.949Z,29.95
2023-05-11T07:52:22.526Z,29.88
2023-05-11T07:54:50.153Z,30.55
2023-05-11T07:57:17.928Z,30.52
2023-05-11T07:59:45.620Z,30.55
2023-05-11T08:02:14.081Z,30.38
2023-05-11T08:04:41.765Z,30.80
2023-05-11T08:07:09.312Z,31.17
2023-05-11T08:09:37.457Z,30.88
2023-05-11T08:12:05.157Z,32.40
2023-05-11T08:14:32.934Z,31.17
2023-05-11T08:17:00.791Z,31.83
2023-05-11T08:19:28.416Z,31.52
2023-05-11T08:21:56.012Z,31.83
2023-05-11T08:24:23.610Z,32.72
2023-05-11T08:26:51.256Z,32.28
2023-05-11T08:29:18.776Z,33.80
2023-05-11T08:31:46.459Z,33.85
2023-05-11T08:34:19.826Z,32.85
2023-05-11T08:36:47.977Z,33.38
2023-05-11T08:39:24.619Z,33.88
2023-05-11T08:42:05.301Z,34.42
2023-05-11T08:44:35.915Z,34.67
2023-05-11T08:47:21.163Z,34.50
2023-05-11T08:49:53.015Z,33.60
2023-05-11T08:52:21.014Z,34.50
2023-05-11T08:54:48.671Z,33.08
2023-05-11T08:57:17.751Z,32.83
2023-05-11T08:59:46.963Z,33.25
2023-05-11T09:02:18.756Z,31.65
2023-05-11T09:04:48.941Z,32.80
2023-05-11T09:07:19.079Z,30.45
2023-05-11T09:09:47.847Z,29.30
2023-05-11T09:12:17.056Z,27.98
2023-05-11T09:14:44.920Z,29.70
2023-05-11T09:17:12.489Z,28.45
2023-05-11T09:20:05.624Z,29.27
2023-05-11T09:22:36.607Z,29.70
2023-05-11T09:25:04.861Z,28.17
2023-05-11T09:27:33.184Z,27.85
2023-05-11T09:30:23.301Z,29.10
2023-05-11T09:32:59.389Z,27.80
2023-05-11T09:35:33.494Z,25.90
2023-05-11T09:38:07.834Z,26.58
2023-05-11T09:40:46.379Z,27.98
2023-05-11T09:43:23.502Z,26.90
2023-05-11T09:45:56.001Z,28.02
2023-05-11T09:48:30.238Z,28.40
2023-05-11T09:51:08.405Z,31.48
2023-05-11T09:53:40.814Z,29.63
2023-05-11T09:56:09.004Z,30.58
2023-05-11T09:58:57.662Z,30.67
2023-05-11T10:01:33.862Z,31.08
2023-05-11T10:04:21.410Z,31.08
2023-05-11T10:06:53.565Z,30.23
2023-05-11T10:09:26.485Z,30.85
2023-05-11T10:11:55.644Z,28.98
2023-05-11T10:14:25.450Z,30.25
2023-05-11T10:16:55.533Z,31.42
2023-05-11T10:19:23.592Z,32.13
2023-05-11T10:21:52.829Z,32.83
2023-05-11T10:24:20.893Z,31.58
2023-05-11T10:26:49.932Z,33.40
2023-05-11T10:29:19.582Z,31.60
2023-05-11T10:31:48.712Z,32.97
2023-05-11T10:34:17.594Z,32.72
2023-05-11T10:36:46.962Z,30.52
2023-05-11T10:39:14.453Z,29.92
2023-05-11T10:41:52.892Z,31.45
2023-05-11T10:45:10.595Z,31.48
2023-05-11T10:48:00.062Z,30.45
2023-05-11T10:50:43.312Z,29.88
2023-05-11T10:53:32.311Z,30.48
2023-05-11T10:57:07.101Z,28.88
2023-05-11T10:59:43.902Z,29.45
2023-05-11T11:02:12.171Z,31.02
2023-05-11T11:04:48.520Z,29.73
2023-05-11T11:07:18.507Z,29.17
2023-05-11T11:10:05.097Z,31.30
2023-05-11T11:12:35.132Z,29.67
2023-05-11T11:15:07.292Z,29.77
2023-05-11T11:17:36.417Z,30.83
2023-05-11T11:20:08.599Z,31.23
2023-05-11T11:22:39.202Z,31.10
2023-05-11T11:25:09.649Z,31.83
2023-05-11T11:27:40.286Z,32.50
2023-05-11T11:30:28.907Z,33.87
2023-05-11T11:33:16.602Z,31.98
2023-05-11T11:35:47.169Z,33.70
2023-05-11T11:38:19.200Z,35.13
2023-05-11T11:40:54.205Z,35.15
2023-05-11T11:43:25.006Z,35.92
2023-05-11T11:46:01.998Z,34.55
2023-05-11T11:48:35.773Z,36.25
2023-05-11T11:51:07.007Z,35.33
2023-05-11T11:53:37.976Z,36.50
2023-05-11T11:56:29.829Z,34.97
2023-05-11T11:59:04.977Z,35.83
2023-05-11T12:01:38.938Z,36.38
2023-05-11T12:04:39.724Z,34.42
2023-05-11T12:07:10.154Z,34.90
2023-05-11T12:09:38.845Z,36.88
2023-05-11T12:12:08.649Z,36.17
2023-05-11T12:14:36.622Z,36.55
2023-05-11T12:17:15.462Z,36.42
2023-05-11T12:19:44.602Z,36.40
2023-05-11T12:22:14.338Z,36.55
2023-05-11T12:24:43.355Z,35.05
2023-05-11T12:27:11.254Z,36.80
2023-05-11T12:29:39.370Z,36.53
2023-05-11T12:32:12.924Z,35.17
2023-05-11T12:34:40.604Z,36.03
2023-05-11T12:37:08.753Z,36.47
2023-05-11T12:39:36.408Z,34.85
2023-05-11T12:42:04.457Z,36.45
2023-05-11T12:44:33.113Z,37.97
2023-05-11T12:47:00.924Z,37.97
2023-05-11T12:49:29.276Z,40.33
2023-05-11T12:51:59.549Z,37.33
2023-05-11T12:54:39.032Z,38.67
2023-05-11T12:57:25.637Z,40.25
2023-05-11T13:00:16.829Z,38.70
2023-05-11T13:02:53.793Z,36.72
2023-05-11T13:05:26.844Z,37.70
2023-05-11T13:08:05.776Z,37.55
2023-05-11T13:10:33.336Z,37.42
2023-05-11T13:13:00.916Z,36.30
2023-05-11T13:15:28.775Z,34.97
2023-05-11T13:18:02.399Z,36.25
2023-05-11T13:20:34.138Z,34.15
2023-05-11T13:23:13.362Z,36.13
2023-05-11T13:25:48.212Z,35.08
2023-05-11T13:28:18.492Z,34.95
2023-05-11T13:30:47.972Z,33.95
2023-05-11T13:33:15.553Z,34.40
2023-05-11T13:35:44.366Z,33.22
2023-05-11T13:38:12.745Z,35.05
2023-05-11T13:40:40.491Z,34.00
2023-05-11T13:43:08.039Z,32.63
2023-05-11T13:45:36.586Z,34.80
2023-05-11T13:48:04.531Z,32.65
2023-05-11T13:50:32.318Z,34.30
2023-05-11T13:52:59.913Z,33.83
2023-05-11T13:55:29.510Z,32.38
2023-05-11T13:57:57.975Z,33.63
2023-05-11T14:00:26.116Z,31.35
2023-05-11T14:02:53.776Z,30.48
2023-05-11T14:05:21.823Z,27.95
2023-05-11T14:07:49.694Z,27.92
2023-05-11T14:10:18.124Z,27.30
2023-05-11T14:12:46.282Z,26.58
2023-05-11T14:15:14.259Z,27.70
2023-05-11T14:17:43.084Z,27.42
2023-05-11T14:20:13.073Z,28.77
2023-05-11T14:22:41.695Z,28.73
2023-05-11T14:25:09.547Z,27.58
2023-05-11T14:27:37.321Z,27.35
2023-05-11T14:30:06.984Z,25.52
2023-05-11T14:32:34.578Z,27.80
2023-05-11T14:35:02.172Z,26.25
2023-05-11T14:37:29.719Z,26.33
2023-05-11T14:39:57.343Z,26.30
2023-05-11T14:42:24.932Z,25.55
2023-05-11T14:44:52.511Z,24.88
2023-05-11T14:47:20.135Z,24.48
2023-05-11T14:49:47.747Z,24.33
2023-05-11T14:52:15.390Z,24.55
2023-05-11T14:54:42.942Z,24.33
2023-05-11T14:57:10.660Z,24.60
2023-05-11T14:59:47.696Z,24.13
2023-05-11T15:02:26.284Z,22.13
2023-05-11T15:04:53.987Z,21.35
2023-05-11T15:07:21.745Z,22.85
2023-05-11T15:09:50.733Z,21.67
2023-05-11T15:12:18.351Z,21.75
2023-05-11T15:14:45.993Z,22.65
2023-05-11T15:17:13.574Z,23.33
2023-05-11T15:19:41.183Z,23.05
2023-05-11T15:22:08.790Z,20.90
2023-05-11T15:24:36.274Z,21.92
2023-05-11T15:27:04.020Z,23.15
2023-05-11T15:29:32.458Z,20.42
2023-05-11T15:32:00.059Z,21.50
2023-05-11T15:34:27.906Z,20.48
2023-05-11T15:36:55.494Z,20.15
2023-05-11T15:39:23.075Z,20.17
2023-05-11T15:41:50.590Z,18.02
2023-05-11T15:44:18.135Z,15.88
2023-05-11T15:46:46.144Z,13.00
2023-05-11T15:49:13.755Z,12.65
2023-05-11T15:51:41.541Z,13.13
2023-05-11T15:54:09.117Z,12.07
2023-05-11T15:56:36.635Z,12.85
2023-05-11T15:59:04.290Z,13.25
2023-05-11T16:01:32.250Z,12.40
2023-05-11T16:04:01.753Z,12.40
2023-05-11T16:06:29.406Z,14.32
2023-05-11T16:08:56.926Z,13.32
2023-05-11T16:11:24.519Z,13.35
2023-05-11T16:13:52.093Z,14.40
2023-05-11T16:16:19.712Z,14.60
2023-05-11T16:18:47.324Z,16.73
2023-05-11T16:21:15.104Z,15.05
2023-05-11T16:23:42.666Z,15.57
2023-05-11T16:26:10.396Z,16.13
2023-05-11T16:28:38.155Z,15.73
2023-05-11T16:31:05.700Z,16.20
2023-05-11T16:33:33.314Z,15.65
2023-05-11T16:36:00.957Z,15.52
2023-05-11T16:38:28.492Z,15.15
2023-05-11T16:40:56.402Z,16.13
2023-05-11T16:43:24.259Z,16.33
2023-05-11T16:45:53.859Z,16.65
2023-05-11T16:48:21.725Z,17.35
2023-05-11T16:50:49.530Z,19.23
2023-05-11T16:53:17.692Z,18.02
2023-05-11T16:55:45.271Z,16.95
2023-05-11T16:58:12.876Z,18.63
2023-05-11T17:00:41.007Z,19.17
2023-05-11T17:03:08.740Z,18.80
2023-05-11T17:05:36.558Z,18.90
2023-05-11T17:08:04.267Z,17.90
2023-05-11T17:10:31.952Z,18.33
2023-05-11T17:12:59.530Z,19.70
2023-05-11T17:15:27.596Z,18.33
2023-05-11T17:17:55.301Z,18.25
2023-05-11T17:20:23.081Z,18.70
2023-05-11T17:22:50.714Z,18.27
2023-05-11T17:25:18.477Z,17.38
2023-05-11T17:27:45.995Z,17.13
2023-05-11T17:30:14.302Z,16.20
2023-05-11T17:32:42.256Z,14.38
2023-05-11T17:35:10.206Z,14.48
2023-05-11T17:37:37.833Z,13.13
2023-05-11T17:40:06.515Z,12.40
2023-05-11T17:42:34.850Z,12.02
2023-05-11T17:45:02.638Z,11.77
2023-05-11T17:47:31.280Z,10.90
2023-05-11T17:49:58.834Z,10.57
2023-05-11T17:52:26.456Z,9.88
2023-05-11T17:54:54.115Z,9.10
2023-05-11T17:57:23.356Z,8.70
2023-05-11T17:59:51.259Z,8.30
2023-05-11T18:02:18.966Z,7.00
2023-05-11T18:04:46.698Z,6.72
2023-05-11T18:07:14.314Z,6.10
2023-05-11T18:09:41.869Z,6.38
2023-05-11T18:12:09.801Z,6.13
2023-05-11T18:14:37.607Z,5.50
2023-05-11T18:17:05.304Z,5.75
2023-05-11T18:19:32.885Z,5.57
2023-05-11T18:22:00.697Z,4.63
2023-05-11T18:24:28.288Z,4.97
2023-05-11T18:26:56.265Z,5.20
2023-05-11T18:29:23.863Z,5.50
2023-05-11T18:31:52.593Z,4.47
2023-05-11T18:34:20.292Z,5.13
2023-05-11T18:36:49.966Z,5.10
2023-05-11T18:39:17.773Z,5.00
2023-05-11T18:41:45.288Z,5.50
2023-05-11T18:44:15.194Z,4.90
2023-05-11T18:46:42.895Z,5.13
2023-05-11T18:49:10.725Z,5.10
2023-05-11T18:51:38.612Z,5.40
2023-05-11T18:54:06.636Z,4.53
2023-05-11T18:56:34.253Z,5.03
2023-05-11T18:59:01.794Z,4.82
2023-05-11T19:01:40.215Z,5.43
2023-05-11T19:04:17.587Z,5.82
2023-05-11T19:06:45.157Z,5.50
2023-05-11T19:09:12.814Z,5.97
2023-05-11T19:11:40.353Z,5.38
2023-05-11T19:14:08.012Z,6.07
2023-05-11T19:16:35.816Z,5.60
2023-05-11T19:19:03.496Z,5.50
2023-05-11T19:21:31.492Z,5.60
2023-05-11T19:23:59.145Z,6.20
2023-05-11T19:26:26.742Z,5.38
2023-05-11T19:28:54.248Z,5.95
2023-05-11T19:31:22.750Z,5.32
2023-05-11T19:33:50.286Z,5.90
2023-05-11T19:36:17.818Z,5.65
2023-05-11T19:38:45.435Z,5.45
2023-05-11T19:41:13.307Z,5.35
2023-05-11T19:43:40.809Z,5.50
2023-05-11T19:46:08.598Z,6.10
2023-05-11T19:48:36.467Z,5.90
2023-05-11T19:51:04.247Z,5.57
2023-05-11T19:53:32.503Z,6.03
2023-05-11T19:56:00.503Z,5.47
2023-05-11T19:58:28.055Z,5.57
2023-05-11T20:00:55.918Z,5.53
2023-05-11T20:03:23.800Z,6.20
2023-05-11T20:05:53.018Z,5.43
2023-05-11T20:08:20.533Z,5.03
2023-05-11T20:10:48.206Z,6.22
2023-05-11T20:13:15.997Z,6.05
2023-05-11T20:15:43.644Z,6.20
2023-05-11T20:18:11.691Z,6.45
2023-05-11T20:20:39.276Z,7.32
2023-05-11T20:23:06.947Z,6.55
2023-05-11T20:25:34.617Z,6.85
2023-05-11T20:28:02.230Z,7.10
2023-05-11T20:30:29.781Z,7.43
2023-05-11T20:35:28.262Z,8.88
2023-05-11T20:37:56.029Z,7.90
2023-05-11T20:40:25.425Z,8.25
2023-05-11T20:42:53.065Z,8.77
2023-05-11T20:45:20.765Z,8.00
2023-05-11T20:47:48.376Z,7.95
2023-05-11T20:50:16.007Z,8.70
2023-05-11T20:52:43.626Z,8.80
2023-05-11T20:55:11.409Z,8.18
2023-05-11T20:57:39.083Z,8.75
2023-05-11T21:00:07.788Z,8.13
2023-05-11T21:02:35.965Z,8.85
2023-05-11T21:05:03.947Z,9.00
2023-05-11T21:07:31.550Z,8.30
2023-05-11T21:10:00.631Z,9.05
2023-05-11T21:12:28.254Z,8.77
2023-05-11T21:14:56.992Z,8.98
2023-05-11T21:17:24.949Z,8.48
2023-05-11T21:19:52.908Z,9.18
2023-05-11T21:22:20.468Z,8.85
2023-05-11T21:24:48.295Z,8.95
2023-05-11T21:27:15.867Z,8.73
2023-05-11T21:29:43.395Z,9.43
2023-05-11T21:32:11.830Z,9.40
2023-05-11T21:34:39.447Z,10.40
2023-05-11T21:37:06.994Z,10.20
2023-05-11T21:39:34.661Z,10.05
2023-05-11T21:42:02.885Z,9.85
2023-05-11T21:44:30.513Z,10.15
2023-05-11T21:46:58.365Z,9.48
2023-05-11T21:49:26.309Z,9.45
2023-05-11T21:51:53.959Z,9.90
2023-05-11T21:54:22.418Z,10.20
2023-05-11T21:56:52.085Z,9.95
2023-05-11T21:59:19.952Z,10.43
2023-05-11T22:01:49.131Z,9.73
2023-05-11T22:04:16.818Z,9.65
2023-05-11T22:06:44.476Z,9.63
2023-05-11T22:09:12.634Z,10.15
2023-05-11T22:11:40.681Z,9.43
2023-05-11T22:14:08.279Z,9.73
2023-05-11T22:16:35.831Z,9.77
2023-05-11T22:19:04.099Z,10.35
2023-05-11T22:21:31.803Z,10.10
2023-05-11T22:23:59.417Z,10.20
2023-05-11T22:26:27.000Z,11.07
2023-05-11T22:28:54.905Z,9.57
2023-05-11T22:31:22.488Z,9.57
2023-05-11T22:33:50.036Z,9.40
2023-05-11T22:36:17.779Z,9.75
2023-05-11T22:38:45.329Z,8.63
2023-05-11T22:41:12.924Z,8.32
2023-05-11T22:43:40.496Z,8.50
2023-05-11T22:46:08.353Z,8.00
2023-05-11T22:48:36.047Z,7.72
2023-05-11T22:51:06.238Z,7.80
2023-05-11T22:53:33.996Z,8.10
2023-05-11T22:56:09.168Z,7.50
2023-05-11T22:58:36.874Z,7.15
2023-05-11T23:01:04.621Z,7.32
2023-05-11T23:03:32.241Z,7.35
2023-05-11T23:05:59.764Z,7.50
2023-05-11T23:08:27.343Z,7.60
2023-05-11T23:10:55.235Z,7.30
2023-05-11T23:13:22.804Z,8.25
2023-05-11T23:15:50.406Z,8.60
2023-05-11T23:18:17.997Z,8.45
2023-05-11T23:20:45.617Z,9.00
2023-05-11T23:23:13.407Z,9.27
2023-05-11T23:25:41.140Z,9.95
2023-05-11T23:28:11.502Z,8.82
2023-05-11T23:30:39.213Z,8.88
2023-05-11T23:33:06.966Z,8.93
2023-05-11T23:35:34.591Z,9.73
2023-05-11T23:38:02.166Z,9.23
2023-05-11T23:40:30.161Z,9.65
2023-05-11T23:42:57.740Z,8.98
2023-05-11T23:45:27.705Z,7.53
2023-05-11T23:47:55.326Z,7.53
2023-05-11T23:50:23.026Z,7.57
2023-05-11T23:52:50.575Z,7.70
2023-05-11T23:55:18.269Z,7.20
2023-05-11T23:57:46.235Z,7.70
